createdAt,value
2022-12-16T00:01:15.558Z,100283.31
2022-12-16T00:03:52.197Z,100284.00
2022-12-16T00:06:24.801Z,100281.50
2022-12-16T00:08:53.556Z,100280.00
2022-12-16T00:11:21.556Z,100284.69
2022-12-16T00:13:49.642Z,100277.63
2022-12-16T00:16:20.424Z,100275.97
2022-12-16T00:18:48.949Z,100279.66
2022-12-16T00:21:18.649Z,100276.53
2022-12-16T00:23:47.138Z,100261.13
2022-12-16T00:26:15.255Z,100269.28
2022-12-16T00:28:43.952Z,100280.06
2022-12-16T00:31:12.496Z,100284.25
2022-12-16T00:33:41.036Z,100278.81
2022-12-16T00:36:09.296Z,100280.69
2022-12-16T00:38:38.006Z,100274.59
2022-12-16T00:41:06.180Z,100275.56
2022-12-16T00:43:34.611Z,100270.41
2022-12-16T00:46:02.494Z,100271.91
2022-12-16T00:48:30.596Z,100275.50
2022-12-16T00:50:58.425Z,100271.47
2022-12-16T00:53:26.809Z,100272.03
2022-12-16T00:56:09.257Z,100274.25
2022-12-16T00:58:37.948Z,100284.69
2022-12-16T01:01:06.856Z,100279.22
2022-12-16T01:03:35.702Z,100268.25
2022-12-16T01:06:09.933Z,100273.59
2022-12-16T01:08:38.084Z,100269.38
2022-12-16T01:11:06.165Z,100264.06
2022-12-16T01:13:34.679Z,100272.41
2022-12-16T01:16:03.350Z,100270.03
2022-12-16T01:18:31.834Z,100269.06
2022-12-16T01:21:07.579Z,100256.28
2022-12-16T01:23:36.671Z,100249.28
2022-12-16T01:26:04.543Z,100258.47
2022-12-16T01:28:32.609Z,100248.88
2022-12-16T01:31:04.257Z,100265.97
2022-12-16T01:33:33.540Z,100277.63
2022-12-16T01:36:04.879Z,100274.41
2022-12-16T01:38:33.287Z,100267.97
2022-12-16T01:41:01.499Z,100271.47
2022-12-16T01:43:33.225Z,100250.63
2022-12-16T01:46:14.644Z,100261.41
2022-12-16T01:49:08.185Z,100221.59
2022-12-16T01:51:39.764Z,100247.97
2022-12-16T01:54:23.568Z,100244.88
2022-12-16T01:57:00.948Z,100242.25
2022-12-16T01:59:31.701Z,100228.56
2022-12-16T02:02:00.225Z,100231.94
2022-12-16T02:04:28.347Z,100229.88
2022-12-16T02:06:56.970Z,100231.81
2022-12-16T02:09:25.227Z,100233.13
2022-12-16T02:12:19.708Z,100235.63
2022-12-16T02:15:02.806Z,100234.88
2022-12-16T02:17:41.839Z,100219.53
2022-12-16T02:20:19.082Z,100211.81
2022-12-16T02:22:58.493Z,100202.84
2022-12-16T02:25:58.426Z,100197.53
2022-12-16T02:29:10.400Z,100211.81
2022-12-16T02:31:56.152Z,100211.16
2022-12-16T02:34:41.619Z,100214.38
2022-12-16T02:37:29.052Z,100215.03
2022-12-16T02:40:01.593Z,100208.84
2022-12-16T02:43:12.603Z,100208.66
2022-12-16T02:45:41.844Z,100210.06
2022-12-16T02:48:09.784Z,100204.91
2022-12-16T02:50:44.356Z,100198.06
2022-12-16T02:53:13.043Z,100191.94
2022-12-16T02:55:53.625Z,100197.09
2022-12-16T02:58:32.248Z,100190.84
2022-12-16T03:01:24.241Z,100184.88
2022-12-16T03:04:10.786Z,100157.06
2022-12-16T03:06:41.416Z,100159.44
2022-12-16T03:09:13.511Z,100156.69
2022-12-16T03:11:44.034Z,100155.53
2022-12-16T03:14:16.854Z,100153.31
2022-12-16T03:16:47.043Z,100148.25
2022-12-16T03:19:15.216Z,100159.16
2022-12-16T03:22:14.712Z,100164.22
2022-12-16T03:24:43.568Z,100166.94
2022-12-16T03:27:31.801Z,100164.75
2022-12-16T03:30:06.774Z,100163.28
2022-12-16T03:32:39.980Z,100154.84
2022-12-16T03:35:19.669Z,100154.91
2022-12-16T03:37:50.898Z,100165.13
2022-12-16T03:40:21.590Z,100163.81
2022-12-16T03:42:52.322Z,100157.28
2022-12-16T03:45:26.590Z,100148.19
2022-12-16T03:47:58.910Z,100144.00
2022-12-16T03:50:31.984Z,100143.97
2022-12-16T03:52:59.812Z,100134.75
2022-12-16T03:55:28.210Z,100136.81
2022-12-16T03:57:57.270Z,100138.03
2022-12-16T04:00:25.723Z,100128.50
2022-12-16T04:02:53.633Z,100136.19
2022-12-16T04:05:22.949Z,100133.41
2022-12-16T04:07:50.957Z,100130.22
2022-12-16T04:10:39.015Z,100123.06
2022-12-16T04:13:26.812Z,100126.28
2022-12-16T04:16:13.957Z,100122.00
2022-12-16T04:19:00.712Z,100117.09
2022-12-16T04:21:47.736Z,100115.72
2022-12-16T04:24:19.674Z,100111.56
2022-12-16T04:27:15.069Z,100101.75
2022-12-16T04:30:06.824Z,100110.56
2022-12-16T04:32:53.264Z,100117.16
2022-12-16T04:35:39.741Z,100113.34
2022-12-16T04:38:26.597Z,100115.91
2022-12-16T04:41:13.020Z,100122.81
2022-12-16T04:44:00.266Z,100127.59
2022-12-16T04:46:46.764Z,100120.53
2022-12-16T04:49:33.299Z,100117.31
2022-12-16T04:52:19.481Z,100114.06
2022-12-16T04:55:06.026Z,100104.59
2022-12-16T04:57:52.787Z,100095.16
2022-12-16T05:00:39.884Z,100087.38
2022-12-16T05:03:27.110Z,100084.03
2022-12-16T05:06:13.567Z,100087.19
2022-12-16T05:09:00.148Z,100080.56
2022-12-16T05:11:46.816Z,100089.75
2022-12-16T05:14:33.215Z,100086.28
2022-12-16T05:17:19.515Z,100086.88
2022-12-16T05:20:05.701Z,100080.34
2022-12-16T05:22:52.728Z,100092.81
2022-12-16T05:25:40.792Z,100091.38
2022-12-16T05:28:27.658Z,100088.22
2022-12-16T05:31:14.021Z,100098.72
2022-12-16T05:34:00.788Z,100097.09
2022-12-16T05:36:47.286Z,100105.28
2022-12-16T05:39:33.799Z,100095.25
2022-12-16T05:42:20.280Z,100088.56
2022-12-16T05:45:06.843Z,100090.50
2022-12-16T05:47:53.866Z,100084.22
2022-12-16T05:50:40.368Z,100096.28
2022-12-16T05:53:30.199Z,100097.81
2022-12-16T05:56:17.163Z,100106.34
2022-12-16T05:59:03.406Z,100104.03
2022-12-16T06:01:50.119Z,100099.59
2022-12-16T06:04:36.489Z,100100.44
2022-12-16T06:07:22.926Z,100097.31
2022-12-16T06:10:09.290Z,100098.19
2022-12-16T06:12:55.732Z,100101.53
2022-12-16T06:15:42.150Z,100103.69
2022-12-16T06:18:28.886Z,100127.28
2022-12-16T06:21:14.964Z,100122.28
2022-12-16T06:24:01.587Z,100118.88
2022-12-16T06:26:47.945Z,100118.22
2022-12-16T06:29:34.272Z,100108.16
2022-12-16T06:32:20.402Z,100115.91
2022-12-16T06:35:07.137Z,100125.25
2022-12-16T06:37:53.530Z,100117.00
2022-12-16T06:40:40.228Z,100110.97
2022-12-16T06:43:46.086Z,100121.00
2022-12-16T06:46:32.601Z,100101.88
2022-12-16T06:49:18.793Z,100099.16
2022-12-16T06:52:05.097Z,100098.19
2022-12-16T06:54:51.128Z,100071.66
2022-12-16T06:57:37.769Z,100091.91
2022-12-16T07:00:24.789Z,100089.63
2022-12-16T07:03:11.177Z,100095.75
2022-12-16T07:05:57.324Z,100098.31
2022-12-16T07:08:43.880Z,100110.91
2022-12-16T07:11:30.590Z,100115.53
2022-12-16T07:14:17.324Z,100120.78
2022-12-16T07:17:03.620Z,100119.72
2022-12-16T07:19:50.094Z,100115.84
2022-12-16T07:22:36.193Z,100107.34
2022-12-16T07:25:23.409Z,100112.41
2022-12-16T07:28:15.347Z,100107.28
2022-12-16T07:31:03.079Z,100109.19
2022-12-16T07:33:49.236Z,100117.50
2022-12-16T07:36:35.742Z,100126.88
2022-12-16T07:39:21.841Z,100126.06
2022-12-16T07:42:08.193Z,100122.91
2022-12-16T07:44:54.739Z,100126.31
2022-12-16T07:47:41.073Z,100127.97
2022-12-16T07:50:27.560Z,100120.13
2022-12-16T07:53:15.875Z,100125.94
2022-12-16T07:56:02.950Z,100122.16
2022-12-16T07:58:49.828Z,100108.47
2022-12-16T08:01:36.628Z,100114.34
2022-12-16T08:04:23.187Z,100099.06
2022-12-16T08:07:09.498Z,100106.16
2022-12-16T08:09:55.923Z,100096.09
2022-12-16T08:12:42.641Z,100097.22
2022-12-16T08:15:29.460Z,100087.19
2022-12-16T08:18:15.881Z,100078.25
2022-12-16T08:21:02.509Z,100069.88
2022-12-16T08:23:49.041Z,100068.66
2022-12-16T08:26:35.555Z,100059.31
2022-12-16T08:29:43.139Z,100068.44
2022-12-16T08:32:28.312Z,100077.91
2022-12-16T08:35:14.751Z,100066.25
2022-12-16T08:38:01.459Z,100078.31
2022-12-16T08:40:47.812Z,100076.66
2022-12-16T08:43:35.242Z,100077.75
2022-12-16T08:46:21.709Z,100076.84
2022-12-16T08:49:08.189Z,100077.91
2022-12-16T08:51:55.293Z,100074.44
2022-12-16T08:54:42.131Z,100081.69
2022-12-16T08:57:29.461Z,100083.47
2022-12-16T09:00:16.298Z,100077.94
2022-12-16T09:03:02.664Z,100073.88
2022-12-16T09:05:49.552Z,100073.91
2022-12-16T09:08:36.094Z,100062.97
2022-12-16T09:11:23.078Z,100057.81
2022-12-16T09:14:09.427Z,100048.69
2022-12-16T09:16:56.419Z,100040.09
2022-12-16T09:19:42.624Z,100023.22
2022-12-16T09:22:29.183Z,100016.31
2022-12-16T09:25:15.814Z,100011.25
2022-12-16T09:28:02.535Z,100009.69
2022-12-16T09:30:48.898Z,99998.31
2022-12-16T09:33:35.900Z,100005.47
2022-12-16T09:36:23.019Z,99981.50
2022-12-16T09:39:09.468Z,99986.69
2022-12-16T09:42:26.788Z,99987.56
2022-12-16T09:45:30.341Z,99993.50
2022-12-16T09:48:25.163Z,99983.34
2022-12-16T09:51:14.886Z,99974.25
2022-12-16T09:54:02.992Z,99979.44
2022-12-16T09:56:55.141Z,99965.69
2022-12-16T09:59:53.093Z,99969.88
2022-12-16T10:02:43.544Z,99976.78
2022-12-16T10:05:37.970Z,99962.44
2022-12-16T10:08:29.992Z,99971.81
2022-12-16T10:11:22.825Z,99971.16
2022-12-16T10:14:19.738Z,99983.13
2022-12-16T10:17:38.931Z,99979.13
2022-12-16T10:20:31.613Z,99970.56
2022-12-16T10:23:29.487Z,99966.72
2022-12-16T10:26:30.793Z,99965.97
2022-12-16T10:29:39.911Z,99972.59
2022-12-16T10:33:00.584Z,99976.06
2022-12-16T10:35:51.285Z,99964.19
2022-12-16T10:38:55.028Z,99961.78
2022-12-16T10:41:46.675Z,99959.16
2022-12-16T10:44:47.656Z,99953.34
2022-12-16T10:47:34.171Z,99950.03
2022-12-16T10:50:21.047Z,99956.00
2022-12-16T10:53:21.165Z,99954.19
2022-12-16T10:56:10.671Z,99954.16
2022-12-16T10:59:17.665Z,99939.66
2022-12-16T11:02:17.288Z,99937.75
2022-12-16T11:05:04.740Z,99943.03
2022-12-16T11:07:51.267Z,99933.59
2022-12-16T11:10:57.106Z,99938.00
2022-12-16T11:13:45.678Z,99937.00
2022-12-16T11:16:39.772Z,99940.50
2022-12-16T11:19:47.500Z,99938.13
2022-12-16T11:22:51.169Z,99927.09
2022-12-16T11:25:40.224Z,99928.88
2022-12-16T11:28:50.079Z,99915.16
2022-12-16T11:31:36.730Z,99920.44
2022-12-16T11:34:23.892Z,99919.38
2022-12-16T11:37:11.852Z,99916.97
2022-12-16T11:39:59.529Z,99906.53
2022-12-16T11:42:50.624Z,99897.16
2022-12-16T11:45:39.878Z,99893.00
2022-12-16T11:49:00.590Z,99889.69
2022-12-16T11:51:50.575Z,99892.09
2022-12-16T11:54:47.824Z,99887.94
2022-12-16T11:57:44.875Z,99879.38
2022-12-16T12:00:35.135Z,99891.41
2022-12-16T12:03:29.905Z,99894.91
2022-12-16T12:06:49.542Z,99888.78
2022-12-16T12:09:38.957Z,99896.38
2022-12-16T12:12:42.756Z,99898.91
2022-12-16T12:15:32.141Z,99905.09
2022-12-16T12:18:27.173Z,99910.97
2022-12-16T12:21:27.043Z,99910.00
2022-12-16T12:24:19.760Z,99894.78
2022-12-16T12:27:35.619Z,99903.34
2022-12-16T12:30:36.862Z,99914.44
2022-12-16T12:34:07.594Z,99913.59
2022-12-16T12:37:25.060Z,99916.91
2022-12-16T12:40:37.005Z,99920.34
2022-12-16T12:43:43.236Z,99896.31
2022-12-16T12:46:57.926Z,99899.00
2022-12-16T12:49:55.619Z,99901.69
2022-12-16T12:53:19.292Z,99908.47
2022-12-16T12:56:09.048Z,99910.16
2022-12-16T12:58:57.863Z,99911.94
2022-12-16T13:01:49.890Z,99913.31
2022-12-16T13:04:39.832Z,99909.19
2022-12-16T13:07:27.262Z,99895.56
2022-12-16T13:10:34.005Z,99896.22
2022-12-16T13:13:48.115Z,99899.75
2022-12-16T13:17:05.320Z,99893.69
2022-12-16T13:19:54.530Z,99904.94
2022-12-16T13:23:03.770Z,99902.09
2022-12-16T13:26:10.335Z,99909.78
2022-12-16T13:29:01.483Z,99899.63
2022-12-16T13:31:49.115Z,99910.75
2022-12-16T13:34:46.184Z,99925.28
2022-12-16T13:37:43.436Z,99907.19
2022-12-16T13:40:38.359Z,99892.59
2022-12-16T13:43:45.428Z,99916.75
2022-12-16T13:46:33.819Z,99909.88
2022-12-16T13:49:56.009Z,99921.84
2022-12-16T13:53:07.399Z,99925.97
2022-12-16T13:56:15.936Z,99917.28
2022-12-16T13:59:08.622Z,99907.75
2022-12-16T14:02:15.588Z,99908.84
2022-12-16T14:05:07.090Z,99906.19
2022-12-16T14:07:57.684Z,99895.03
2022-12-16T14:10:51.935Z,99918.13
2022-12-16T14:14:05.086Z,99916.16
2022-12-16T14:17:06.323Z,99928.28
2022-12-16T14:20:20.996Z,99934.25
2022-12-16T14:23:55.820Z,99933.41
2022-12-16T14:26:39.759Z,99935.94
2022-12-16T14:29:40.082Z,99952.09
2022-12-16T14:32:44.880Z,99964.06
2022-12-16T14:35:46.495Z,99953.94
2022-12-16T14:38:43.828Z,99959.03
2022-12-16T14:41:44.053Z,99955.63
2022-12-16T14:44:41.983Z,99967.66
2022-12-16T14:47:39.290Z,99964.97
2022-12-16T14:50:39.809Z,99964.13
2022-12-16T14:53:48.954Z,99959.00
2022-12-16T14:56:41.735Z,99979.34
2022-12-16T14:59:38.726Z,100003.38
2022-12-16T15:02:52.623Z,100006.75
2022-12-16T15:05:46.086Z,100005.91
2022-12-16T15:08:36.434Z,99997.34
2022-12-16T15:11:27.861Z,99983.72
2022-12-16T15:14:18.956Z,99991.38
2022-12-16T15:17:07.873Z,100005.13
2022-12-16T15:20:08.561Z,99993.91
2022-12-16T15:22:55.099Z,100005.09
2022-12-16T15:25:44.229Z,99996.44
2022-12-16T15:29:01.447Z,100000.88
2022-12-16T15:31:55.228Z,100011.09
2022-12-16T15:35:07.135Z,100020.47
2022-12-16T15:38:04.132Z,100018.81
2022-12-16T15:41:00.164Z,100016.16
2022-12-16T15:43:57.369Z,100005.97
2022-12-16T15:46:48.137Z,100010.94
2022-12-16T15:49:46.452Z,100013.59
2022-12-16T15:52:53.507Z,100019.53
2022-12-16T15:55:49.419Z,100033.94
2022-12-16T15:58:53.649Z,100029.88
2022-12-16T16:01:44.821Z,100025.66
2022-12-16T16:04:47.163Z,100022.16
2022-12-16T16:07:42.878Z,100040.22
2022-12-16T16:10:36.672Z,100036.00
2022-12-16T16:13:23.600Z,100032.34
2022-12-16T16:16:10.771Z,100032.41
2022-12-16T16:18:58.565Z,100042.56
2022-12-16T16:21:45.082Z,100046.69
2022-12-16T16:24:32.204Z,100049.50
2022-12-16T16:27:21.069Z,100041.03
2022-12-16T16:30:07.549Z,100039.16
2022-12-16T16:32:53.856Z,100043.41
2022-12-16T16:35:40.360Z,100043.56
2022-12-16T16:38:31.705Z,100044.22
2022-12-16T16:41:18.525Z,100037.38
2022-12-16T16:44:04.844Z,100044.22
2022-12-16T16:46:59.055Z,100040.84
2022-12-16T16:49:52.309Z,100051.13
2022-12-16T16:52:41.632Z,100052.75
2022-12-16T16:55:42.946Z,100056.34
2022-12-16T16:58:45.584Z,100062.06
2022-12-16T17:01:33.303Z,100078.41
2022-12-16T17:04:20.665Z,100077.47
2022-12-16T17:07:07.075Z,100079.38
2022-12-16T17:09:53.818Z,100087.91
2022-12-16T17:12:42.797Z,100100.72
2022-12-16T17:15:42.862Z,100102.59
2022-12-16T17:18:29.454Z,100096.56
2022-12-16T17:21:16.094Z,100094.81
2022-12-16T17:24:02.592Z,100107.53
2022-12-16T17:26:49.393Z,100102.66
2022-12-16T17:29:41.607Z,100107.56
2022-12-16T17:32:29.329Z,100116.88
2022-12-16T17:35:16.243Z,100107.78
2022-12-16T17:38:03.188Z,100109.25
2022-12-16T17:40:49.185Z,100109.06
2022-12-16T17:43:35.950Z,100113.38
2022-12-16T17:46:25.738Z,100119.25
2022-12-16T17:49:13.709Z,100118.69
2022-12-16T17:52:00.732Z,100124.53
2022-12-16T17:54:47.684Z,100126.28
2022-12-16T17:57:33.806Z,100134.81
2022-12-16T18:00:20.198Z,100113.19
2022-12-16T18:03:06.709Z,100132.41
2022-12-16T18:05:53.415Z,100126.56
2022-12-16T18:08:39.962Z,100134.66
2022-12-16T18:11:26.614Z,100134.91
2022-12-16T18:14:13.155Z,100133.78
2022-12-16T18:16:59.777Z,100135.56
2022-12-16T18:19:46.298Z,100149.94
2022-12-16T18:22:35.303Z,100148.38
2022-12-16T18:25:21.787Z,100158.75
2022-12-16T18:28:08.366Z,100163.88
2022-12-16T18:30:56.056Z,100178.97
2022-12-16T18:33:42.543Z,100182.34
2022-12-16T18:36:45.699Z,100192.97
2022-12-16T18:39:32.205Z,100192.13
2022-12-16T18:42:18.601Z,100200.75
2022-12-16T18:45:07.621Z,100208.41
2022-12-16T18:47:54.047Z,100210.13
2022-12-16T18:50:40.629Z,100203.16
2022-12-16T18:53:27.333Z,100196.47
2022-12-16T18:56:25.969Z,100190.59
2022-12-16T18:59:12.666Z,100186.28
2022-12-16T19:01:59.720Z,100194.63
2022-12-16T19:04:46.259Z,100203.31
2022-12-16T19:07:33.901Z,100189.50
2022-12-16T19:10:20.783Z,100199.88
2022-12-16T19:13:07.413Z,100204.31
2022-12-16T19:15:54.365Z,100206.69
2022-12-16T19:18:41.338Z,100221.22
2022-12-16T19:21:28.854Z,100218.75
2022-12-16T19:24:15.275Z,100231.47
2022-12-16T19:27:01.860Z,100226.63
2022-12-16T19:29:48.421Z,100218.91
2022-12-16T19:32:34.818Z,100231.94
2022-12-16T19:35:21.411Z,100233.38
2022-12-16T19:38:08.091Z,100232.81
2022-12-16T19:40:54.584Z,100234.06
2022-12-16T19:43:42.648Z,100250.66
2022-12-16T19:46:29.218Z,100246.22
2022-12-16T19:49:15.366Z,100252.28
2022-12-16T19:52:01.785Z,100254.22
2022-12-16T19:54:48.444Z,100254.72
2022-12-16T19:57:34.982Z,100265.75
2022-12-16T20:00:22.558Z,100264.19
2022-12-16T20:03:09.495Z,100269.22
2022-12-16T20:05:56.045Z,100270.22
2022-12-16T20:08:42.726Z,100275.00
2022-12-16T20:11:29.388Z,100297.34
2022-12-16T20:14:16.353Z,100297.34
2022-12-16T20:17:02.864Z,100287.31
2022-12-16T20:19:49.484Z,100300.25
2022-12-16T20:22:35.615Z,100301.09
2022-12-16T20:25:22.152Z,100303.34
2022-12-16T20:28:08.401Z,100295.94
2022-12-16T20:30:56.278Z,100301.19
2022-12-16T20:33:43.200Z,100296.22
2022-12-16T20:36:29.941Z,100311.31
2022-12-16T20:39:16.399Z,100305.22
2022-12-16T20:42:02.888Z,100282.47
2022-12-16T20:44:49.473Z,100279.75
2022-12-16T20:47:36.210Z,100292.38
2022-12-16T20:50:22.600Z,100288.09
2022-12-16T20:53:09.282Z,100291.38
2022-12-16T20:55:56.192Z,100292.34
2022-12-16T20:58:43.021Z,100288.84
2022-12-16T21:01:29.652Z,100294.91
2022-12-16T21:04:16.140Z,100298.59
2022-12-16T21:07:02.643Z,100286.91
2022-12-16T21:09:49.533Z,100286.03
2022-12-16T21:12:35.933Z,100295.38
2022-12-16T21:15:23.047Z,100295.38
2022-12-16T21:18:09.520Z,100291.97
2022-12-16T21:20:56.439Z,100304.84
2022-12-16T21:23:42.935Z,100310.16
2022-12-16T21:26:29.552Z,100313.56
2022-12-16T21:29:15.618Z,100321.31
2022-12-16T21:32:02.423Z,100318.03
2022-12-16T21:34:48.744Z,100328.16
2022-12-16T21:37:35.151Z,100329.59
2022-12-16T21:40:21.986Z,100319.47
2022-12-16T21:43:08.518Z,100320.53
2022-12-16T21:45:56.121Z,100322.28
2022-12-16T21:48:47.135Z,100329.72
2022-12-16T21:51:33.432Z,100338.22
2022-12-16T21:54:21.472Z,100348.78
2022-12-16T21:57:07.809Z,100356.44
2022-12-16T21:59:54.249Z,100363.13
2022-12-16T22:02:43.074Z,100358.97
2022-12-16T22:05:29.983Z,100355.56
2022-12-16T22:08:16.681Z,100366.63
2022-12-16T22:11:03.278Z,100371.78
2022-12-16T22:13:49.899Z,100370.88
2022-12-16T22:16:43.762Z,100372.69
2022-12-16T22:29:12.552Z,100391.75
2022-12-16T22:31:59.165Z,100399.66
2022-12-16T22:34:45.460Z,100408.19
2022-12-16T22:37:31.928Z,100404.75
2022-12-16T22:40:18.474Z,100411.13
2022-12-16T22:43:07.494Z,100411.94
2022-12-16T22:45:54.038Z,100405.16
2022-12-16T22:48:42.762Z,100409.91
2022-12-16T22:51:30.781Z,100418.13
2022-12-16T22:54:17.755Z,100413.44
2022-12-16T22:57:04.205Z,100424.00
2022-12-16T22:59:50.690Z,100418.63
2022-12-16T23:02:38.300Z,100427.88
2022-12-16T23:05:27.724Z,100421.88
2022-12-16T23:08:14.982Z,100426.22
2022-12-16T23:11:01.533Z,100422.75
2022-12-16T23:13:47.976Z,100429.25
2022-12-16T23:16:34.577Z,100429.13
2022-12-16T23:19:20.945Z,100434.38
2022-12-16T23:22:08.217Z,100429.41
2022-12-16T23:24:54.591Z,100439.56
2022-12-16T23:27:41.334Z,100436.34
2022-12-16T23:30:28.406Z,100448.09
2022-12-16T23:33:19.156Z,100437.59
2022-12-16T23:36:05.186Z,100434.19
2022-12-16T23:38:51.738Z,100421.31
2022-12-16T23:41:39.698Z,100434.13
2022-12-16T23:44:26.437Z,100430.84
2022-12-16T23:47:12.813Z,100424.06
2022-12-16T23:49:59.331Z,100423.19
2022-12-16T23:52:45.742Z,100435.19
2022-12-16T23:55:32.290Z,100436.91
2022-12-16T23:58:20.011Z,100449.75
